sensor_id;sensor_type;location;lat;lon;timestamp;P1;durP1;ratioP1;P2;durP2;ratioP2
37873;SDS011;23709;48.078;11.684;2024-01-11T05:21:35;111.65;;;30.02;;
37873;SDS011;23709;48.078;11.684;2024-01-11T05:24:08;202.32;;;37.40;;
37873;SDS011;23709;48.078;11.684;2024-01-11T05:26:42;131.38;;;32.05;;
37873;SDS011;23709;48.078;11.684;2024-01-11T05:29:15;183.90;;;36.10;;
37873;SDS011;23709;48.078;11.684;2024-01-11T05:31:47;157.88;;;32.20;;
37873;SDS011;23709;48.078;11.684;2024-01-11T05:36:52;127.20;;;31.90;;
37873;SDS011;23709;48.078;11.684;2024-01-11T05:39:25;139.07;;;32.15;;
37873;SDS011;23709;48.078;11.684;2024-01-11T05:41:57;120.75;;;31.60;;
37873;SDS011;23709;48.078;11.684;2024-01-11T05:44:30;126.53;;;31.05;;
37873;SDS011;23709;48.078;11.684;2024-01-11T05:47:03;109.50;;;29.00;;
37873;SDS011;23709;48.078;11.684;2024-01-11T05:49:36;157.55;;;30.27;;
37873;SDS011;23709;48.078;11.684;2024-01-11T05:52:08;116.80;;;31.03;;
37873;SDS011;23709;48.078;11.684;2024-01-11T05:54:40;170.50;;;26.90;;
37873;SDS011;23709;48.078;11.684;2024-01-11T05:57:13;114.20;;;30.67;;
37873;SDS011;23709;48.078;11.684;2024-01-11T05:59:45;154.48;;;33.60;;
37873;SDS011;23709;48.078;11.684;2024-01-11T06:02:18;116.13;;;30.88;;
37873;SDS011;23709;48.078;11.684;2024-01-11T06:04:52;211.63;;;35.72;;
37873;SDS011;23709;48.078;11.684;2024-01-11T06:07:24;114.43;;;29.17;;
37873;SDS011;23709;48.078;11.684;2024-01-11T06:09:57;163.20;;;35.30;;
37873;SDS011;23709;48.078;11.684;2024-01-11T06:12:29;139.82;;;33.30;;
37873;SDS011;23709;48.078;11.684;2024-01-11T06:15:02;114.78;;;30.15;;
37873;SDS011;23709;48.078;11.684;2024-01-11T06:17:35;118.45;;;30.23;;
37873;SDS011;23709;48.078;11.684;2024-01-11T06:20:09;136.30;;;29.70;;
37873;SDS011;23709;48.078;11.684;2024-01-11T06:22:42;163.38;;;32.20;;
37873;SDS011;23709;48.078;11.684;2024-01-11T06:25:16;123.55;;;29.52;;
37873;SDS011;23709;48.078;11.684;2024-01-11T06:27:50;136.30;;;31.80;;
37873;SDS011;23709;48.078;11.684;2024-01-11T06:30:23;126.82;;;29.85;;
37873;SDS011;23709;48.078;11.684;2024-01-11T06:32:56;137.23;;;30.92;;
37873;SDS011;23709;48.078;11.684;2024-01-11T06:35:28;119.20;;;29.90;;
37873;SDS011;23709;48.078;11.684;2024-01-11T06:38:00;190.50;;;31.07;;
37873;SDS011;23709;48.078;11.684;2024-01-11T06:40:33;124.47;;;28.87;;
37873;SDS011;23709;48.078;11.684;2024-01-11T06:43:05;180.17;;;31.43;;
37873;SDS011;23709;48.078;11.684;2024-01-11T06:45:38;108.00;;;30.85;;
37873;SDS011;23709;48.078;11.684;2024-01-11T06:48:11;177.55;;;31.77;;
37873;SDS011;23709;48.078;11.684;2024-01-11T06:50:44;105.50;;;27.50;;
37873;SDS011;23709;48.078;11.684;2024-01-11T06:53:16;103.05;;;27.58;;
37873;SDS011;23709;48.078;11.684;2024-01-11T06:55:49;97.82;;;27.92;;
37873;SDS011;23709;48.078;11.684;2024-01-11T06:58:24;117.40;;;26.92;;
37873;SDS011;23709;48.078;11.684;2024-01-11T07:00:56;124.37;;;27.63;;
37873;SDS011;23709;48.078;11.684;2024-01-11T07:03:29;122.93;;;29.70;;
37873;SDS011;23709;48.078;11.684;2024-01-11T07:06:01;98.30;;;27.13;;
37873;SDS011;23709;48.078;11.684;2024-01-11T07:08:35;118.03;;;28.58;;
37873;SDS011;23709;48.078;11.684;2024-01-11T07:11:08;102.57;;;25.52;;
37873;SDS011;23709;48.078;11.684;2024-01-11T07:13:41;80.40;;;24.90;;
37873;SDS011;23709;48.078;11.684;2024-01-11T07:16:14;105.45;;;27.45;;
37873;SDS011;23709;48.078;11.684;2024-01-11T07:18:47;96.28;;;27.02;;
37873;SDS011;23709;48.078;11.684;2024-01-11T07:21:20;96.30;;;25.90;;
37873;SDS011;23709;48.078;11.684;2024-01-11T07:24:03;88.95;;;25.50;;
37873;SDS011;23709;48.078;11.684;2024-01-11T07:26:37;86.18;;;23.17;;
37873;SDS011;23709;48.078;11.684;2024-01-11T07:29:09;94.78;;;27.15;;
37873;SDS011;23709;48.078;11.684;2024-01-11T07:31:42;85.53;;;26.13;;
37873;SDS011;23709;48.078;11.684;2024-01-11T07:34:14;110.72;;;27.60;;
37873;SDS011;23709;48.078;11.684;2024-01-11T07:36:47;136.43;;;28.05;;
37873;SDS011;23709;48.078;11.684;2024-01-11T07:39:19;132.90;;;31.02;;
37873;SDS011;23709;48.078;11.684;2024-01-11T07:41:54;88.80;;;26.70;;
37873;SDS011;23709;48.078;11.684;2024-01-11T07:47:00;134.30;;;27.95;;
37873;SDS011;23709;48.078;11.684;2024-01-11T07:49:33;99.78;;;28.58;;
37873;SDS011;23709;48.078;11.684;2024-01-11T07:52:05;107.80;;;30.23;;
37873;SDS011;23709;48.078;11.684;2024-01-11T07:54:37;139.05;;;30.77;;
37873;SDS011;23709;48.078;11.684;2024-01-11T07:57:09;99.22;;;30.60;;
37873;SDS011;23709;48.078;11.684;2024-01-11T07:59:42;159.32;;;32.45;;
37873;SDS011;23709;48.078;11.684;2024-01-11T08:02:14;137.80;;;28.83;;
37873;SDS011;23709;48.078;11.684;2024-01-11T08:04:47;95.93;;;25.65;;
37873;SDS011;23709;48.078;11.684;2024-01-11T08:07:20;120.03;;;26.65;;
37873;SDS011;23709;48.078;11.684;2024-01-11T14:21:41;129.17;;;45.70;;
37873;SDS011;23709;48.078;11.684;2024-01-11T14:24:14;151.07;;;49.38;;
37873;SDS011;23709;48.078;11.684;2024-01-11T14:26:54;137.95;;;48.80;;
37873;SDS011;23709;48.078;11.684;2024-01-11T14:29:26;152.85;;;49.05;;
37873;SDS011;23709;48.078;11.684;2024-01-11T14:31:58;160.13;;;50.58;;
37873;SDS011;23709;48.078;11.684;2024-01-11T14:34:31;139.93;;;46.80;;
37873;SDS011;23709;48.078;11.684;2024-01-11T14:37:04;150.85;;;51.47;;
37873;SDS011;23709;48.078;11.684;2024-01-11T14:39:37;156.57;;;49.53;;
37873;SDS011;23709;48.078;11.684;2024-01-11T14:42:09;117.20;;;37.05;;
37873;SDS011;23709;48.078;11.684;2024-01-11T14:44:42;136.43;;;44.85;;
37873;SDS011;23709;48.078;11.684;2024-01-11T14:47:14;150.30;;;48.80;;
37873;SDS011;23709;48.078;11.684;2024-01-11T14:49:47;164.52;;;51.58;;
37873;SDS011;23709;48.078;11.684;2024-01-11T14:54:53;156.80;;;49.70;;
37873;SDS011;23709;48.078;11.684;2024-01-11T14:57:25;143.25;;;48.03;;
37873;SDS011;23709;48.078;11.684;2024-01-11T14:59:58;150.93;;;49.15;;
37873;SDS011;23709;48.078;11.684;2024-01-11T15:02:30;160.75;;;52.83;;
37873;SDS011;23709;48.078;11.684;2024-01-11T15:05:03;158.30;;;53.88;;
37873;SDS011;23709;48.078;11.684;2024-01-11T15:07:36;139.88;;;48.70;;
37873;SDS011;23709;48.078;11.684;2024-01-11T15:10:09;157.93;;;51.08;;
37873;SDS011;23709;48.078;11.684;2024-01-11T15:12:42;135.80;;;49.53;;
37873;SDS011;23709;48.078;11.684;2024-01-11T15:15:14;151.35;;;48.40;;
37873;SDS011;23709;48.078;11.684;2024-01-11T15:17:46;155.18;;;54.05;;
37873;SDS011;23709;48.078;11.684;2024-01-11T15:20:20;156.73;;;51.95;;
37873;SDS011;23709;48.078;11.684;2024-01-11T15:22:54;159.57;;;51.40;;
37873;SDS011;23709;48.078;11.684;2024-01-11T15:25:26;159.63;;;52.33;;
37873;SDS011;23709;48.078;11.684;2024-01-11T15:27:58;152.43;;;55.03;;
37873;SDS011;23709;48.078;11.684;2024-01-11T15:30:31;165.98;;;53.28;;
37873;SDS011;23709;48.078;11.684;2024-01-11T15:33:04;167.40;;;54.15;;
37873;SDS011;23709;48.078;11.684;2024-01-11T15:35:37;191.80;;;69.13;;
37873;SDS011;23709;48.078;11.684;2024-01-11T15:38:09;172.65;;;54.28;;
37873;SDS011;23709;48.078;11.684;2024-01-11T15:43:16;213.18;;;69.90;;
37873;SDS011;23709;48.078;11.684;2024-01-11T15:45:48;180.70;;;58.38;;
37873;SDS011;23709;48.078;11.684;2024-01-11T15:50:55;163.13;;;52.25;;
37873;SDS011;23709;48.078;11.684;2024-01-11T15:53:28;178.93;;;56.33;;
37873;SDS011;23709;48.078;11.684;2024-01-11T15:56:01;161.30;;;55.80;;
37873;SDS011;23709;48.078;11.684;2024-01-11T15:58:33;168.10;;;54.15;;
37873;SDS011;23709;48.078;11.684;2024-01-11T16:01:06;166.48;;;55.35;;
37873;SDS011;23709;48.078;11.684;2024-01-11T16:03:38;147.93;;;46.30;;
37873;SDS011;23709;48.078;11.684;2024-01-11T16:06:11;197.75;;;58.83;;
37873;SDS011;23709;48.078;11.684;2024-01-11T16:08:43;167.23;;;51.93;;
37873;SDS011;23709;48.078;11.684;2024-01-11T16:11:16;205.38;;;59.95;;
37873;SDS011;23709;48.078;11.684;2024-01-11T16:13:48;177.20;;;55.08;;
37873;SDS011;23709;48.078;11.684;2024-01-11T16:16:21;172.73;;;52.90;;
37873;SDS011;23709;48.078;11.684;2024-01-11T16:18:53;161.52;;;55.25;;
37873;SDS011;23709;48.078;11.684;2024-01-11T16:21:26;182.32;;;58.55;;
37873;SDS011;23709;48.078;11.684;2024-01-11T16:24:03;200.95;;;62.55;;
37873;SDS011;23709;48.078;11.684;2024-01-11T16:26:36;196.60;;;62.90;;
37873;SDS011;23709;48.078;11.684;2024-01-11T16:29:08;201.80;;;61.95;;
37873;SDS011;23709;48.078;11.684;2024-01-11T16:31:41;185.50;;;59.67;;
37873;SDS011;23709;48.078;11.684;2024-01-11T16:34:13;185.90;;;58.88;;
37873;SDS011;23709;48.078;11.684;2024-01-11T16:36:45;205.17;;;61.33;;
37873;SDS011;23709;48.078;11.684;2024-01-11T16:39:18;184.30;;;57.75;;
37873;SDS011;23709;48.078;11.684;2024-01-11T16:41:50;194.93;;;62.83;;
37873;SDS011;23709;48.078;11.684;2024-01-11T16:44:23;199.38;;;61.58;;
37873;SDS011;23709;48.078;11.684;2024-01-11T16:46:56;202.10;;;63.25;;
37873;SDS011;23709;48.078;11.684;2024-01-11T16:49:29;202.90;;;60.95;;
37873;SDS011;23709;48.078;11.684;2024-01-11T16:52:01;183.73;;;57.35;;
37873;SDS011;23709;48.078;11.684;2024-01-11T16:54:36;175.25;;;55.40;;
37873;SDS011;23709;48.078;11.684;2024-01-11T16:57:09;188.15;;;59.95;;
37873;SDS011;23709;48.078;11.684;2024-01-11T16:59:42;190.80;;;60.33;;
37873;SDS011;23709;48.078;11.684;2024-01-11T17:02:14;184.77;;;58.92;;
37873;SDS011;23709;48.078;11.684;2024-01-11T17:04:46;189.03;;;58.77;;
37873;SDS011;23709;48.078;11.684;2024-01-11T17:07:20;196.85;;;60.92;;
37873;SDS011;23709;48.078;11.684;2024-01-11T17:09:52;152.65;;;48.67;;
37873;SDS011;23709;48.078;11.684;2024-01-11T17:12:24;198.30;;;60.13;;
37873;SDS011;23709;48.078;11.684;2024-01-11T17:14:57;171.25;;;57.03;;
37873;SDS011;23709;48.078;11.684;2024-01-11T17:17:31;176.23;;;55.33;;
37873;SDS011;23709;48.078;11.684;2024-01-11T17:20:03;173.17;;;56.83;;
37873;SDS011;23709;48.078;11.684;2024-01-11T17:22:36;180.77;;;54.70;;
37873;SDS011;23709;48.078;11.684;2024-01-11T17:25:08;184.63;;;56.47;;
37873;SDS011;23709;48.078;11.684;2024-01-11T17:27:41;187.63;;;58.60;;
37873;SDS011;23709;48.078;11.684;2024-01-11T17:30:13;175.80;;;56.63;;
37873;SDS011;23709;48.078;11.684;2024-01-11T17:32:46;174.80;;;56.05;;
37873;SDS011;23709;48.078;11.684;2024-01-11T17:35:19;208.80;;;67.45;;
37873;SDS011;23709;48.078;11.684;2024-01-11T17:37:51;176.43;;;56.15;;
37873;SDS011;23709;48.078;11.684;2024-01-11T17:40:24;180.77;;;59.13;;
37873;SDS011;23709;48.078;11.684;2024-01-11T17:42:56;165.77;;;56.72;;
37873;SDS011;23709;48.078;11.684;2024-01-11T17:45:28;207.02;;;60.80;;
37873;SDS011;23709;48.078;11.684;2024-01-11T17:48:01;178.73;;;57.78;;
37873;SDS011;23709;48.078;11.684;2024-01-11T17:50:34;184.23;;;55.95;;
37873;SDS011;23709;48.078;11.684;2024-01-11T17:53:06;162.38;;;55.17;;
37873;SDS011;23709;48.078;11.684;2024-01-11T17:55:39;186.30;;;57.15;;
37873;SDS011;23709;48.078;11.684;2024-01-11T17:58:11;170.13;;;55.88;;
37873;SDS011;23709;48.078;11.684;2024-01-11T18:00:44;187.27;;;58.87;;
37873;SDS011;23709;48.078;11.684;2024-01-11T18:03:16;168.38;;;52.95;;
37873;SDS011;23709;48.078;11.684;2024-01-11T18:05:48;171.77;;;55.33;;
37873;SDS011;23709;48.078;11.684;2024-01-11T18:08:21;167.27;;;53.17;;
37873;SDS011;23709;48.078;11.684;2024-01-11T18:10:53;178.35;;;55.20;;
37873;SDS011;23709;48.078;11.684;2024-01-11T18:13:25;168.25;;;53.42;;
37873;SDS011;23709;48.078;11.684;2024-01-11T18:15:58;172.63;;;53.70;;
37873;SDS011;23709;48.078;11.684;2024-01-11T18:18:31;178.60;;;53.27;;
37873;SDS011;23709;48.078;11.684;2024-01-11T18:21:05;202.02;;;66.55;;
37873;SDS011;23709;48.078;11.684;2024-01-11T18:23:37;174.23;;;53.72;;
37873;SDS011;23709;48.078;11.684;2024-01-11T18:26:10;175.82;;;58.75;;
37873;SDS011;23709;48.078;11.684;2024-01-11T18:28:42;226.20;;;78.55;;
37873;SDS011;23709;48.078;11.684;2024-01-11T18:31:16;179.32;;;57.72;;
37873;SDS011;23709;48.078;11.684;2024-01-11T18:33:48;193.00;;;59.78;;
37873;SDS011;23709;48.078;11.684;2024-01-11T18:36:24;170.27;;;50.20;;
37873;SDS011;23709;48.078;11.684;2024-01-11T18:38:57;178.98;;;55.50;;
37873;SDS011;23709;48.078;11.684;2024-01-11T18:41:30;171.38;;;54.25;;
37873;SDS011;23709;48.078;11.684;2024-01-11T18:44:03;178.30;;;53.17;;
37873;SDS011;23709;48.078;11.684;2024-01-11T18:46:39;149.23;;;48.65;;
37873;SDS011;23709;48.078;11.684;2024-01-11T18:49:12;158.10;;;49.88;;
37873;SDS011;23709;48.078;11.684;2024-01-11T18:51:45;158.32;;;50.13;;
37873;SDS011;23709;48.078;11.684;2024-01-11T18:54:17;172.60;;;48.83;;
37873;SDS011;23709;48.078;11.684;2024-01-11T18:56:50;131.32;;;46.78;;
37873;SDS011;23709;48.078;11.684;2024-01-11T18:59:22;158.77;;;49.03;;
37873;SDS011;23709;48.078;11.684;2024-01-11T19:01:56;163.35;;;49.38;;
37873;SDS011;23709;48.078;11.684;2024-01-11T19:04:28;111.68;;;33.58;;
37873;SDS011;23709;48.078;11.684;2024-01-11T19:07:01;158.60;;;50.73;;
37873;SDS011;23709;48.078;11.684;2024-01-11T19:09:34;157.60;;;47.28;;
37873;SDS011;23709;48.078;11.684;2024-01-11T19:12:07;154.43;;;45.00;;
37873;SDS011;23709;48.078;11.684;2024-01-11T19:14:39;169.73;;;49.50;;
37873;SDS011;23709;48.078;11.684;2024-01-11T19:17:12;181.30;;;51.95;;
37873;SDS011;23709;48.078;11.684;2024-01-11T19:19:44;155.33;;;49.20;;
37873;SDS011;23709;48.078;11.684;2024-01-11T19:22:17;161.68;;;48.45;;
37873;SDS011;23709;48.078;11.684;2024-01-11T19:24:49;168.02;;;48.13;;
37873;SDS011;23709;48.078;11.684;2024-01-11T19:27:21;142.15;;;44.40;;
37873;SDS011;23709;48.078;11.684;2024-01-11T19:29:55;164.02;;;48.20;;
37873;SDS011;23709;48.078;11.684;2024-01-11T19:32:27;188.38;;;52.20;;
37873;SDS011;23709;48.078;11.684;2024-01-11T19:35:00;174.05;;;49.92;;
37873;SDS011;23709;48.078;11.684;2024-01-11T19:37:33;164.05;;;50.10;;
37873;SDS011;23709;48.078;11.684;2024-01-11T19:40:05;149.70;;;44.75;;
37873;SDS011;23709;48.078;11.684;2024-01-11T19:42:40;172.60;;;51.53;;
37873;SDS011;23709;48.078;11.684;2024-01-11T19:45:13;173.40;;;50.40;;
37873;SDS011;23709;48.078;11.684;2024-01-11T19:47:46;188.90;;;54.83;;
37873;SDS011;23709;48.078;11.684;2024-01-11T19:50:19;187.80;;;52.90;;
37873;SDS011;23709;48.078;11.684;2024-01-11T19:52:51;181.45;;;50.67;;
37873;SDS011;23709;48.078;11.684;2024-01-11T19:55:24;200.45;;;63.30;;
37873;SDS011;23709;48.078;11.684;2024-01-11T19:57:57;173.60;;;52.30;;
37873;SDS011;23709;48.078;11.684;2024-01-11T20:00:29;197.43;;;59.15;;
37873;SDS011;23709;48.078;11.684;2024-01-11T20:03:01;174.23;;;54.03;;
37873;SDS011;23709;48.078;11.684;2024-01-11T20:05:34;136.07;;;39.53;;
37873;SDS011;23709;48.078;11.684;2024-01-11T20:08:07;152.07;;;47.97;;
37873;SDS011;23709;48.078;11.684;2024-01-11T20:10:39;153.32;;;42.35;;
37873;SDS011;23709;48.078;11.684;2024-01-11T20:13:12;141.40;;;39.42;;
37873;SDS011;23709;48.078;11.684;2024-01-11T20:15:44;132.90;;;41.33;;
37873;SDS011;23709;48.078;11.684;2024-01-11T20:18:17;126.15;;;37.15;;
37873;SDS011;23709;48.078;11.684;2024-01-11T20:20:49;87.03;;;26.17;;
37873;SDS011;23709;48.078;11.684;2024-01-11T20:23:24;111.93;;;35.17;;
37873;SDS011;23709;48.078;11.684;2024-01-11T20:25:56;113.87;;;35.73;;
37873;SDS011;23709;48.078;11.684;2024-01-11T20:28:31;121.50;;;35.95;;
37873;SDS011;23709;48.078;11.684;2024-01-11T20:31:04;138.63;;;38.78;;
37873;SDS011;23709;48.078;11.684;2024-01-11T20:33:37;113.05;;;35.80;;
37873;SDS011;23709;48.078;11.684;2024-01-11T20:36:10;96.13;;;32.30;;
37873;SDS011;23709;48.078;11.684;2024-01-11T20:38:42;113.18;;;34.97;;
37873;SDS011;23709;48.078;11.684;2024-01-11T20:41:14;112.70;;;32.97;;
37873;SDS011;23709;48.078;11.684;2024-01-11T20:43:48;110.80;;;32.40;;
37873;SDS011;23709;48.078;11.684;2024-01-11T20:46:21;100.25;;;29.52;;
37873;SDS011;23709;48.078;11.684;2024-01-11T20:48:57;115.53;;;34.65;;
37873;SDS011;23709;48.078;11.684;2024-01-11T20:51:30;97.63;;;32.43;;
37873;SDS011;23709;48.078;11.684;2024-01-11T20:54:02;107.70;;;30.93;;
37873;SDS011;23709;48.078;11.684;2024-01-11T20:56:41;95.23;;;27.90;;
37873;SDS011;23709;48.078;11.684;2024-01-11T20:59:15;92.20;;;28.55;;
37873;SDS011;23709;48.078;11.684;2024-01-11T21:01:47;95.85;;;28.77;;
37873;SDS011;23709;48.078;11.684;2024-01-11T21:04:20;120.10;;;29.13;;
37873;SDS011;23709;48.078;11.684;2024-01-11T21:06:53;106.57;;;30.20;;
37873;SDS011;23709;48.078;11.684;2024-01-11T21:09:26;102.53;;;28.60;;
37873;SDS011;23709;48.078;11.684;2024-01-11T21:11:58;89.07;;;22.48;;
37873;SDS011;23709;48.078;11.684;2024-01-11T21:14:32;96.72;;;27.50;;
37873;SDS011;23709;48.078;11.684;2024-01-11T21:17:04;65.05;;;22.60;;
37873;SDS011;23709;48.078;11.684;2024-01-11T21:19:37;71.22;;;21.42;;
37873;SDS011;23709;48.078;11.684;2024-01-11T21:22:10;75.15;;;23.92;;
37873;SDS011;23709;48.078;11.684;2024-01-11T21:24:42;60.10;;;21.20;;
37873;SDS011;23709;48.078;11.684;2024-01-11T21:27:14;75.57;;;23.03;;
37873;SDS011;23709;48.078;11.684;2024-01-11T21:29:47;72.05;;;22.70;;
37873;SDS011;23709;48.078;11.684;2024-01-11T21:32:20;66.38;;;24.00;;
37873;SDS011;23709;48.078;11.684;2024-01-11T21:34:52;74.38;;;24.70;;
37873;SDS011;23709;48.078;11.684;2024-01-11T21:37:25;82.70;;;26.13;;
37873;SDS011;23709;48.078;11.684;2024-01-11T21:39:57;80.47;;;26.83;;
37873;SDS011;23709;48.078;11.684;2024-01-11T21:42:29;76.90;;;24.90;;
37873;SDS011;23709;48.078;11.684;2024-01-11T21:45:04;89.78;;;26.48;;
37873;SDS011;23709;48.078;11.684;2024-01-11T21:47:37;85.00;;;25.40;;
37873;SDS011;23709;48.078;11.684;2024-01-11T21:50:09;79.30;;;26.00;;
37873;SDS011;23709;48.078;11.684;2024-01-11T21:52:42;85.82;;;28.58;;
37873;SDS011;23709;48.078;11.684;2024-01-11T21:55:15;75.88;;;25.90;;
37873;SDS011;23709;48.078;11.684;2024-01-11T21:57:47;83.68;;;25.30;;
37873;SDS011;23709;48.078;11.684;2024-01-11T22:00:20;92.28;;;22.42;;
37873;SDS011;23709;48.078;11.684;2024-01-11T22:02:52;57.83;;;18.55;;
37873;SDS011;23709;48.078;11.684;2024-01-11T22:05:25;106.63;;;29.57;;
37873;SDS011;23709;48.078;11.684;2024-01-11T22:07:58;94.22;;;28.70;;
37873;SDS011;23709;48.078;11.684;2024-01-11T22:10:30;106.93;;;29.08;;
37873;SDS011;23709;48.078;11.684;2024-01-11T22:13:03;115.35;;;31.45;;
37873;SDS011;23709;48.078;11.684;2024-01-11T22:15:36;100.50;;;31.17;;
37873;SDS011;23709;48.078;11.684;2024-01-11T22:18:08;108.13;;;31.67;;
37873;SDS011;23709;48.078;11.684;2024-01-11T22:20:40;105.90;;;30.20;;
37873;SDS011;23709;48.078;11.684;2024-01-11T22:23:13;117.72;;;31.25;;
37873;SDS011;23709;48.078;11.684;2024-01-11T22:25:45;127.93;;;33.22;;
37873;SDS011;23709;48.078;11.684;2024-01-11T22:28:18;127.57;;;31.95;;
37873;SDS011;23709;48.078;11.684;2024-01-11T22:30:50;133.02;;;35.08;;
37873;SDS011;23709;48.078;11.684;2024-01-11T22:33:23;116.10;;;31.37;;
37873;SDS011;23709;48.078;11.684;2024-01-11T22:35:55;114.93;;;32.60;;
37873;SDS011;23709;48.078;11.684;2024-01-11T22:38:28;118.10;;;33.07;;
37873;SDS011;23709;48.078;11.684;2024-01-11T22:41:01;98.40;;;29.30;;
37873;SDS011;23709;48.078;11.684;2024-01-11T22:43:36;97.40;;;30.50;;
37873;SDS011;23709;48.078;11.684;2024-01-11T22:46:09;99.25;;;30.42;;
37873;SDS011;23709;48.078;11.684;2024-01-11T22:48:42;117.50;;;32.10;;
37873;SDS011;23709;48.078;11.684;2024-01-11T22:51:15;104.80;;;29.73;;
37873;SDS011;23709;48.078;11.684;2024-01-11T22:53:48;103.18;;;28.55;;
37873;SDS011;23709;48.078;11.684;2024-01-11T22:56:22;111.45;;;31.52;;
37873;SDS011;23709;48.078;11.684;2024-01-11T22:58:55;104.72;;;33.03;;
37873;SDS011;23709;48.078;11.684;2024-01-11T23:01:27;107.88;;;29.85;;
37873;SDS011;23709;48.078;11.684;2024-01-11T23:04:00;134.50;;;33.63;;
37873;SDS011;23709;48.078;11.684;2024-01-11T23:06:32;124.97;;;31.60;;
37873;SDS011;23709;48.078;11.684;2024-01-11T23:09:07;112.90;;;32.25;;
37873;SDS011;23709;48.078;11.684;2024-01-11T23:11:42;116.57;;;28.58;;
37873;SDS011;23709;48.078;11.684;2024-01-11T23:14:15;112.82;;;30.55;;
37873;SDS011;23709;48.078;11.684;2024-01-11T23:16:50;108.80;;;30.95;;
37873;SDS011;23709;48.078;11.684;2024-01-11T23:19:24;115.90;;;33.22;;
37873;SDS011;23709;48.078;11.684;2024-01-11T23:21:57;131.48;;;35.88;;
37873;SDS011;23709;48.078;11.684;2024-01-11T23:27:03;97.88;;;29.23;;
37873;SDS011;23709;48.078;11.684;2024-01-11T23:29:37;101.03;;;28.95;;
37873;SDS011;23709;48.078;11.684;2024-01-11T23:32:10;64.60;;;17.65;;
37873;SDS011;23709;48.078;11.684;2024-01-11T23:34:42;111.65;;;29.20;;
37873;SDS011;23709;48.078;11.684;2024-01-11T23:37:15;93.00;;;26.45;;
37873;SDS011;23709;48.078;11.684;2024-01-11T23:39:48;109.80;;;27.95;;
37873;SDS011;23709;48.078;11.684;2024-01-11T23:42:21;99.30;;;28.17;;
37873;SDS011;23709;48.078;11.684;2024-01-11T23:44:53;117.07;;;31.25;;
37873;SDS011;23709;48.078;11.684;2024-01-11T23:47:25;107.70;;;29.52;;
37873;SDS011;23709;48.078;11.684;2024-01-11T23:50:00;108.53;;;30.33;;
37873;SDS011;23709;48.078;11.684;2024-01-11T23:52:33;101.18;;;27.67;;
37873;SDS011;23709;48.078;11.684;2024-01-11T23:55:06;102.35;;;29.80;;
37873;SDS011;23709;48.078;11.684;2024-01-11T23:57:38;96.70;;;28.80;;
